Time;durP1;ratioP1;P1;durP2;ratioP2;P2;SDS_P1;SDS_P2;PMS_P1;PMS_P2;Temp;Humidity;BMP_temperature;BMP_pressure;BME280_temperature;BME280_humidity;BME280_pressure;Samples;Min_cycle;Max_cycle;Signal;HPM_P1;HPM_P2
2021/04/07 00:01:25;;;;;;;3.90;3.60;;;2.60;99.90;;;;;;5054078;28;20164;-63
2021/04/07 00:03:51;;;;;;;4.20;3.90;;;2.60;99.90;;;;;;5054088;28;20629;-63
2021/04/07 00:06:16;;;;;;;4.23;3.83;;;2.60;99.90;;;;;;5053756;28;20565;-64
2021/04/07 00:08:47;;;;;;;3.73;3.43;;;2.50;99.90;;;;;;5053963;28;20537;-64
2021/04/07 00:11:13;;;;;;;3.87;3.57;;;2.60;99.90;;;;;;5054081;28;20197;-64
2021/04/07 00:13:38;;;;;;;3.33;3.03;;;2.70;99.90;;;;;;5053885;28;20913;-64
2021/04/07 00:16:04;;;;;;;4.40;3.87;;;2.80;99.90;;;;;;5053699;28;20197;-64
2021/04/07 00:18:29;;;;;;;3.97;3.63;;;2.70;99.90;;;;;;5053983;28;20193;-64
2021/04/07 00:20:55;;;;;;;4.73;3.23;;;2.60;99.90;;;;;;5053504;28;20626;-64
2021/04/07 00:23:21;;;;;;;4.77;3.37;;;2.70;99.90;;;;;;5035569;28;20164;-64
2021/04/07 00:25:46;;;;;;;4.50;3.60;;;2.50;99.90;;;;;;5035710;28;20197;-64
2021/04/07 00:28:18;;;;;;;4.00;3.60;;;2.60;99.90;;;;;;5053708;28;20169;-64
2021/04/07 00:30:43;;;;;;;4.00;3.37;;;2.80;99.90;;;;;;5054015;28;20154;-64
2021/04/07 00:33:09;;;;;;;3.67;3.37;;;2.90;99.90;;;;;;5053500;28;20786;-64
2021/04/07 00:35:35;;;;;;;3.57;3.27;;;2.80;99.90;;;;;;5053316;28;20219;-64
2021/04/07 00:38:00;;;;;;;4.20;3.80;;;2.70;99.90;;;;;;5053280;28;20287;-64
2021/04/07 00:40:26;;;;;;;3.90;3.60;;;2.90;99.90;;;;;;5054304;28;20512;-64
2021/04/07 00:42:53;;;;;;;3.43;3.13;;;2.80;99.90;;;;;;5054067;28;20247;-64
2021/04/07 00:45:19;;;;;;;3.87;3.30;;;2.90;99.90;;;;;;5055614;28;20181;-64
2021/04/07 00:47:49;;;;;;;3.90;3.47;;;2.80;99.90;;;;;;5056759;28;20452;-63
2021/04/07 00:50:15;;;;;;;3.70;3.40;;;3.00;99.90;;;;;;5060540;28;20486;-64
2021/04/07 00:52:41;;;;;;;4.10;3.23;;;3.00;99.90;;;;;;5061657;28;20460;-63
2021/04/07 00:55:07;;;;;;;5.07;2.83;;;2.90;99.90;;;;;;5055244;28;20478;-63
2021/04/07 00:57:33;;;;;;;4.17;3.63;;;2.60;99.90;;;;;;5057928;28;20229;-64
2021/04/07 00:59:59;;;;;;;3.23;3.00;;;2.90;99.90;;;;;;5057880;28;20403;-64
2021/04/07 01:02:25;;;;;;;4.20;3.80;;;3.10;99.90;;;;;;5057529;28;20161;-64
2021/04/07 01:04:52;;;;;;;3.53;3.33;;;2.90;99.90;;;;;;5057265;28;20877;-64
2021/04/07 01:07:18;;;;;;;4.90;3.57;;;3.00;99.90;;;;;;5056859;28;20411;-63
2021/04/07 01:09:44;;;;;;;3.37;3.13;;;2.90;99.90;;;;;;5057306;28;20482;-64
2021/04/07 01:12:10;;;;;;;5.20;4.00;;;2.80;99.90;;;;;;5057267;28;20408;-64
2021/04/07 01:14:37;;;;;;;4.23;3.93;;;2.80;99.90;;;;;;5057103;28;20168;-63
2021/04/07 01:17:04;;;;;;;4.07;3.70;;;2.60;99.90;;;;;;5057072;28;20778;-61
2021/04/07 01:19:30;;;;;;;6.53;4.10;;;2.40;99.90;;;;;;5057106;28;20898;-64
2021/04/07 01:21:56;;;;;;;4.37;4.03;;;2.60;99.90;;;;;;5056946;28;20408;-64
2021/04/07 01:24:24;;;;;;;4.80;3.70;;;2.70;99.90;;;;;;5056783;28;20458;-64
2021/04/07 01:26:51;;;;;;;5.37;4.43;;;2.60;99.90;;;;;;5057136;28;20499;-64
2021/04/07 01:29:16;;;;;;;6.00;4.37;;;2.60;99.90;;;;;;5057123;28;20567;-63
2021/04/07 01:31:55;;;;;;;6.50;4.50;;;2.40;99.90;;;;;;5056806;28;20446;-64
2021/04/07 01:34:26;;;;;;;4.70;4.17;;;2.40;99.90;;;;;;5057437;28;20606;-64
2021/04/07 01:36:54;;;;;;;4.63;3.93;;;2.40;99.90;;;;;;5056289;28;20466;-64
2021/04/07 01:39:21;;;;;;;6.90;4.30;;;2.50;99.90;;;;;;5038350;28;20539;-64
2021/04/07 01:41:48;;;;;;;4.90;3.83;;;2.40;99.90;;;;;;5055595;28;20415;-63
2021/04/07 01:44:15;;;;;;;5.83;5.30;;;2.30;99.90;;;;;;5056609;28;20399;-63
2021/04/07 01:46:41;;;;;;;4.90;4.50;;;2.30;99.90;;;;;;5056669;28;20854;-64
2021/04/07 01:49:08;;;;;;;4.90;4.40;;;2.40;99.90;;;;;;5056462;28;20401;-64
2021/04/07 01:51:34;;;;;;;5.00;4.53;;;2.40;99.90;;;;;;5056415;28;20397;-63
2021/04/07 01:54:02;;;;;;;9.13;4.20;;;2.30;99.90;;;;;;5056090;28;20402;-64
2021/04/07 01:56:27;;;;;;;5.57;4.73;;;2.50;99.90;;;;;;5056294;28;20428;-64
2021/04/07 01:59:02;;;;;;;4.80;4.40;;;2.30;99.90;;;;;;5056305;28;20453;-64
2021/04/07 02:01:28;;;;;;;8.00;4.60;;;2.30;99.90;;;;;;5056183;28;20214;-64
2021/04/07 02:03:54;;;;;;;5.20;4.13;;;2.30;99.90;;;;;;5056295;28;20483;-64
2021/04/07 02:06:20;;;;;;;5.10;4.60;;;2.10;99.90;;;;;;5055158;28;20201;-61
2021/04/07 02:08:46;;;;;;;4.67;4.27;;;2.10;99.90;;;;;;5055786;28;20902;-64
2021/04/07 02:11:11;;;;;;;4.87;4.50;;;2.00;99.90;;;;;;5056210;28;20173;-64
2021/04/07 02:13:37;;;;;;;7.17;4.73;;;1.90;99.90;;;;;;5056605;28;20180;-64
2021/04/07 02:16:13;;;;;;;5.70;4.90;;;1.90;99.90;;;;;;5056014;28;20188;-63
2021/04/07 02:18:41;;;;;;;6.00;5.40;;;2.00;99.90;;;;;;5056105;28;20325;-64
2021/04/07 02:21:07;;;;;;;7.27;5.90;;;2.10;99.90;;;;;;5055983;28;20403;-64
2021/04/07 02:23:34;;;;;;;6.30;5.70;;;2.00;99.90;;;;;;5037826;28;20409;-64
2021/04/07 02:25:59;;;;;;;6.17;5.57;;;2.00;99.90;;;;;;5055963;28;20462;-64
2021/04/07 02:28:25;;;;;;;5.73;5.27;;;1.90;99.90;;;;;;5055724;28;20464;-64
2021/04/07 02:30:51;;;;;;;5.90;5.30;;;1.80;99.90;;;;;;5056034;28;20163;-64
2021/04/07 02:33:17;;;;;;;6.97;6.27;;;2.00;99.90;;;;;;5056393;28;20935;-64
2021/04/07 02:35:43;;;;;;;5.97;5.37;;;2.10;99.90;;;;;;5055525;28;20244;-64
2021/04/07 02:38:09;;;;;;;6.73;5.63;;;2.00;99.90;;;;;;5055228;28;20474;-64
2021/04/07 02:40:35;;;;;;;6.20;5.70;;;1.90;99.90;;;;;;5055616;28;20164;-64
2021/04/07 02:43:01;;;;;;;6.00;5.40;;;2.00;99.90;;;;;;5055225;28;20450;-64
2021/04/07 02:45:26;;;;;;;7.73;5.77;;;2.20;99.90;;;;;;5055253;28;20215;-64
2021/04/07 02:47:52;;;;;;;7.23;6.53;;;2.00;99.90;;;;;;5055207;28;20437;-64
2021/04/07 02:50:18;;;;;;;6.87;5.70;;;2.10;99.90;;;;;;5058260;28;20257;-64
2021/04/07 02:52:43;;;;;;;6.07;5.47;;;2.20;99.90;;;;;;5054880;28;20898;-64
2021/04/07 02:55:10;;;;;;;8.10;6.47;;;2.10;99.90;;;;;;5055926;28;20192;-63
2021/04/07 02:57:36;;;;;;;6.20;5.47;;;2.10;99.90;;;;;;5055572;28;20656;-63
2021/04/07 03:00:03;;;;;;;5.90;5.40;;;2.00;99.90;;;;;;5055696;28;20410;-63
2021/04/07 03:02:29;;;;;;;7.10;5.83;;;1.80;99.90;;;;;;5055350;28;20454;-63
2021/04/07 03:04:54;;;;;;;6.13;5.60;;;1.90;99.90;;;;;;5055249;28;20787;-63
2021/04/07 03:07:20;;;;;;;7.87;6.60;;;2.10;99.90;;;;;;5055051;28;20164;-64
2021/04/07 03:09:45;;;;;;;6.53;5.97;;;2.10;99.90;;;;;;5054917;28;20714;-64
2021/04/07 03:12:11;;;;;;;7.40;5.97;;;2.20;99.90;;;;;;5054687;28;20192;-64
2021/04/07 03:14:36;;;;;;;6.07;5.50;;;2.20;99.90;;;;;;5054695;28;20252;-64
2021/04/07 03:17:02;;;;;;;7.30;4.97;;;2.30;99.90;;;;;;5054379;28;20199;-64
2021/04/07 03:19:28;;;;;;;7.30;6.70;;;2.20;99.90;;;;;;5054219;28;20654;-64
2021/04/07 03:21:53;;;;;;;7.10;6.50;;;2.10;99.90;;;;;;5036435;28;20175;-64
2021/04/07 03:24:19;;;;;;;5.60;5.10;;;2.00;99.90;;;;;;5054544;28;20163;-64
2021/04/07 03:26:44;;;;;;;6.00;5.40;;;1.90;99.90;;;;;;5054574;28;20184;-63
2021/04/07 03:29:10;;;;;;;5.37;4.97;;;1.80;99.90;;;;;;5054725;28;20219;-63
2021/04/07 03:31:36;;;;;;;6.00;5.10;;;1.90;99.90;;;;;;5054685;28;20178;-63
2021/04/07 03:34:01;;;;;;;5.40;4.90;;;1.90;99.90;;;;;;5054742;28;20204;-64
2021/04/07 03:36:27;;;;;;;5.77;5.27;;;2.00;99.90;;;;;;5074769;23;20258;-61
2021/04/07 03:38:53;;;;;;;5.17;4.67;;;2.00;99.90;;;;;;5045113;28;20189;-61
2021/04/07 03:41:19;;;;;;;5.77;5.27;;;2.00;99.90;;;;;;5054208;28;20255;-60
2021/04/07 03:43:44;;;;;;;4.97;4.10;;;2.00;99.90;;;;;;5053912;28;20431;-61
2021/04/07 03:46:10;;;;;;;5.30;4.20;;;1.90;99.90;;;;;;5053904;28;20192;-62
2021/04/07 03:48:36;;;;;;;5.87;5.33;;;1.90;99.90;;;;;;5053830;28;20165;-62
2021/04/07 03:51:02;;;;;;;7.20;4.93;;;1.90;99.90;;;;;;5053639;28;20196;-59
2021/04/07 03:53:27;;;;;;;7.10;5.17;;;1.90;99.90;;;;;;5053871;28;20252;-60
2021/04/07 03:55:56;;;;;;;5.00;4.47;;;2.00;99.90;;;;;;5053816;28;20427;-60
2021/04/07 03:58:22;;;;;;;5.00;4.50;;;1.90;99.90;;;;;;5053970;28;20190;-62
2021/04/07 04:00:48;;;;;;;7.00;5.43;;;1.90;99.90;;;;;;5053690;28;20957;-60
2021/04/07 04:03:14;;;;;;;4.37;4.07;;;1.90;99.90;;;;;;5053583;28;20179;-60
2021/04/07 04:05:40;;;;;;;5.07;4.60;;;2.00;99.90;;;;;;5049092;28;20439;-60
2021/04/07 04:08:07;;;;;;;5.10;4.13;;;2.10;99.90;;;;;;5033617;28;20418;-60
2021/04/07 04:10:34;;;;;;;4.30;3.90;;;2.10;99.90;;;;;;5033884;28;20837;-60
2021/04/07 04:13:00;;;;;;;4.03;3.70;;;2.10;99.90;;;;;;5033628;28;20812;-60
2021/04/07 04:15:26;;;;;;;4.63;4.00;;;2.10;99.90;;;;;;5033687;28;20443;-62
2021/04/07 04:17:52;;;;;;;5.10;3.67;;;2.00;99.90;;;;;;5033448;28;20904;-60
2021/04/07 04:20:19;;;;;;;4.40;4.00;;;2.10;99.90;;;;;;5033363;28;20169;-62
2021/04/07 04:22:45;;;;;;;4.70;4.07;;;2.10;99.90;;;;;;5033375;28;20443;-60
2021/04/07 04:25:17;;;;;;;4.37;3.70;;;2.10;99.90;;;;;;5033506;28;20404;-62
2021/04/07 04:27:42;;;;;;;4.60;4.30;;;2.10;99.90;;;;;;5033708;28;20410;-61
2021/04/07 04:30:10;;;;;;;4.90;4.50;;;2.10;99.90;;;;;;5033295;28;20916;-61
2021/04/07 04:32:36;;;;;;;5.97;4.17;;;2.30;99.90;;;;;;5031931;28;20173;-61
2021/04/07 04:35:02;;;;;;;4.37;3.90;;;2.20;99.90;;;;;;5033498;28;20430;-61
2021/04/07 04:37:28;;;;;;;4.97;3.90;;;2.20;99.90;;;;;;5032624;28;20282;-61
2021/04/07 04:39:53;;;;;;;5.30;4.80;;;2.00;99.90;;;;;;5033184;28;20544;-61
2021/04/07 04:42:20;;;;;;;5.30;4.43;;;2.00;99.90;;;;;;5033826;28;20622;-61
2021/04/07 04:44:46;;;;;;;5.87;4.10;;;2.00;99.90;;;;;;5033916;28;20253;-61
2021/04/07 04:47:11;;;;;;;6.87;3.87;;;2.10;99.90;;;;;;5035411;28;20459;-61
2021/04/07 04:49:37;;;;;;;6.23;3.90;;;2.10;99.90;;;;;;5033256;28;20193;-62
2021/04/07 04:52:03;;;;;;;4.53;3.77;;;2.00;99.90;;;;;;5032739;28;20176;-61
2021/04/07 04:54:28;;;;;;;8.80;5.07;;;2.10;99.90;;;;;;5032844;28;20652;-60
2021/04/07 04:56:54;;;;;;;4.83;3.33;;;2.10;99.90;;;;;;5033041;28;20432;-60
2021/04/07 04:59:20;;;;;;;5.13;3.67;;;2.00;99.90;;;;;;5033167;28;20201;-60
2021/04/07 05:01:45;;;;;;;5.20;3.67;;;2.00;99.90;;;;;;5032846;28;20161;-60
2021/04/07 05:04:11;;;;;;;3.90;3.50;;;2.10;99.90;;;;;;5033149;28;20218;-60
2021/04/07 05:06:36;;;;;;;4.13;3.50;;;2.10;99.90;;;;;;5032534;28;20653;-61
2021/04/07 05:09:04;;;;;;;4.67;3.37;;;2.00;99.90;;;;;;5032665;28;20174;-60
2021/04/07 05:11:32;;;;;;;4.30;3.90;;;2.00;99.90;;;;;;5032938;28;20546;-61
2021/04/07 05:14:01;;;;;;;3.80;3.50;;;2.10;99.90;;;;;;5032828;28;20413;-60
2021/04/07 05:16:27;;;;;;;4.10;2.77;;;2.10;99.90;;;;;;5032766;28;20450;-60
2021/04/07 05:18:53;;;;;;;4.03;2.97;;;2.10;99.90;;;;;;5032676;28;20952;-61
2021/04/07 05:21:19;;;;;;;3.87;3.40;;;2.00;99.90;;;;;;5032416;28;20409;-61
2021/04/07 05:23:44;;;;;;;4.30;3.60;;;2.10;99.90;;;;;;5032540;28;20245;-61
2021/04/07 05:26:10;;;;;;;5.23;4.13;;;2.10;99.90;;;;;;5032405;28;20189;-61
2021/04/07 05:28:36;;;;;;;5.30;3.70;;;2.30;99.90;;;;;;5032725;28;20325;-61
2021/04/07 05:31:02;;;;;;;4.03;3.63;;;2.10;99.90;;;;;;5032660;28;20180;-62
2021/04/07 05:33:34;;;;;;;4.20;3.70;;;2.20;99.90;;;;;;5032427;28;20411;-61
2021/04/07 05:36:03;;;;;;;4.10;2.97;;;2.20;99.90;;;;;;5032000;28;20462;-61
2021/04/07 05:38:29;;;;;;;5.30;3.40;;;2.20;99.90;;;;;;5032071;28;20530;-61
2021/04/07 05:40:56;;;;;;;4.40;3.30;;;2.10;99.90;;;;;;5033321;28;20404;-62
2021/04/07 05:43:22;;;;;;;5.60;4.07;;;2.20;99.90;;;;;;5036628;28;20163;-61
2021/04/07 05:45:48;;;;;;;4.13;3.30;;;2.00;99.90;;;;;;5036212;28;20425;-61
2021/04/07 05:48:14;;;;;;;9.03;3.80;;;2.00;99.90;;;;;;5036132;28;20413;-61
2021/04/07 05:50:42;;;;;;;4.43;3.33;;;2.10;99.90;;;;;;5035703;28;20437;-62
2021/04/07 05:53:08;;;;;;;5.70;3.67;;;2.00;99.90;;;;;;5036003;28;20399;-61
2021/04/07 05:55:34;;;;;;;7.27;4.60;;;2.00;99.90;;;;;;5035643;28;20430;-62
2021/04/07 05:58:01;;;;;;;5.33;3.83;;;2.00;99.90;;;;;;5035955;28;20777;-62
2021/04/07 06:00:28;;;;;;;5.03;3.50;;;2.00;99.90;;;;;;5036080;28;20410;-62
2021/04/07 06:02:57;;;;;;;6.17;3.40;;;1.90;99.90;;;;;;5036147;28;20404;-62
2021/04/07 06:05:24;;;;;;;5.40;2.83;;;2.00;99.90;;;;;;5035712;28;20403;-63
2021/04/07 06:07:50;;;;;;;6.57;3.53;;;2.00;99.90;;;;;;5035700;28;20493;-62
2021/04/07 06:10:16;;;;;;;6.17;4.10;;;2.00;99.90;;;;;;5035750;28;20461;-62
2021/04/07 06:12:42;;;;;;;4.10;3.70;;;2.00;99.90;;;;;;5036021;28;20409;-60
2021/04/07 06:15:10;;;;;;;4.87;3.73;;;2.10;99.90;;;;;;5035551;28;20400;-63
2021/04/07 06:17:36;;;;;;;4.77;3.20;;;2.00;99.90;;;;;;5035729;28;20211;-61
2021/04/07 06:20:08;;;;;;;3.67;3.10;;;2.00;99.90;;;;;;5035711;28;20490;-62
2021/04/07 06:22:34;;;;;;;5.00;3.30;;;2.00;99.90;;;;;;5035207;28;20435;-61
2021/04/07 06:25:00;;;;;;;3.93;2.83;;;2.10;99.90;;;;;;5035222;28;20406;-62
2021/04/07 06:27:26;;;;;;;6.93;3.70;;;2.00;99.90;;;;;;5035304;28;20182;-61
2021/04/07 06:29:52;;;;;;;7.47;3.60;;;2.20;99.90;;;;;;5039818;28;20477;-61
2021/04/07 06:32:18;;;;;;;4.07;2.50;;;2.20;99.90;;;;;;5038881;28;20416;-63
2021/04/07 06:34:43;;;;;;;5.90;3.20;;;2.30;99.90;;;;;;5035010;28;20428;-60
2021/04/07 06:37:09;;;;;;;2.73;2.53;;;2.40;99.90;;;;;;5034850;28;20214;-61
2021/04/07 06:39:35;;;;;;;5.00;2.73;;;2.60;99.90;;;;;;5034955;28;20197;-61
2021/04/07 06:42:00;;;;;;;3.83;2.60;;;2.70;99.90;;;;;;5035066;28;20162;-61
2021/04/07 06:44:26;;;;;;;7.10;3.30;;;2.90;99.90;;;;;;5035420;28;20174;-61
2021/04/07 06:46:55;;;;;;;5.20;3.00;;;3.10;99.90;;;;;;5034958;28;20182;-61
2021/04/07 06:49:23;;;;;;;3.90;3.03;;;3.10;99.90;;;;;;5035328;28;20670;-62
2021/04/07 06:51:52;;;;;;;7.30;3.37;;;3.10;99.90;;;;;;5050522;28;20408;-60
2021/04/07 06:54:21;;;;;;;9.10;3.63;;;3.10;99.90;;;;;;5054719;28;20496;-61
2021/04/07 06:56:48;;;;;;;28.80;6.10;;;3.20;99.90;;;;;;5054981;28;20435;-62
2021/04/07 06:59:14;;;;;;;8.20;3.40;;;3.10;99.90;;;;;;5055242;28;20503;-62
2021/04/07 07:01:39;;;;;;;4.90;2.97;;;3.20;99.90;;;;;;5055022;28;20407;-62
2021/04/07 07:04:05;;;;;;;4.13;2.77;;;3.30;99.90;;;;;;5055234;28;20185;-63
2021/04/07 07:06:31;;;;;;;3.60;2.80;;;3.30;99.90;;;;;;5043205;28;20217;-62
2021/04/07 07:08:57;;;;;;;6.63;2.63;;;3.20;99.90;;;;;;5034859;28;20168;-63
2021/04/07 07:11:23;;;;;;;4.60;2.40;;;3.50;99.90;;;;;;5034960;28;20744;-63
2021/04/07 07:13:50;;;;;;;3.60;2.60;;;3.30;99.90;;;;;;5035051;28;20167;-62
2021/04/07 07:16:28;;;;;;;4.50;3.30;;;3.30;99.90;;;;;;5035083;28;20619;-62
2021/04/07 07:18:54;;;;;;;4.63;2.30;;;3.30;99.90;;;;;;5034511;28;20453;-62
2021/04/07 07:21:21;;;;;;;3.13;2.60;;;3.30;99.90;;;;;;5034751;28;20750;-63
2021/04/07 07:23:48;;;;;;;6.57;2.70;;;3.40;99.90;;;;;;5034465;28;20180;-61
2021/04/07 07:26:14;;;;;;;2.50;2.10;;;3.20;99.90;;;;;;5030384;28;21011;-63
2021/04/07 07:28:53;;;;;;;3.60;2.60;;;3.10;99.90;;;;;;5033629;28;20469;-63
2021/04/07 07:31:18;;;;;;;3.90;2.55;;;3.20;99.90;;;;;;5032790;28;20418;-63
2021/04/07 07:33:44;;;;;;;4.07;2.33;;;3.30;99.90;;;;;;5028282;28;20167;-63
2021/04/07 07:36:10;;;;;;;5.93;2.30;;;3.30;99.90;;;;;;5033431;28;20236;-62
2021/04/07 07:38:53;;;;;;;4.53;2.40;;;3.30;99.90;;;;;;5033891;28;20862;-63
2021/04/07 07:41:45;;;;;;;7.00;2.30;;;3.40;99.90;;;;;;5034118;28;20379;-62
2021/04/07 07:44:11;;;;;;;6.00;2.80;;;3.60;99.90;;;;;;5032628;28;20425;-62
2021/04/07 07:46:38;;;;;;;3.10;2.10;;;3.80;99.90;;;;;;5033552;28;20417;-63
2021/04/07 07:49:13;;;;;;;6.53;2.93;;;3.90;99.70;;;;;;5034132;28;20448;-63
2021/04/07 07:51:44;;;;;;;2.13;1.93;;;4.30;99.90;;;;;;5033802;28;20386;-63
2021/04/07 07:54:16;;;;;;;6.13;2.83;;;4.60;99.30;;;;;;5033716;28;20385;-62
2021/04/07 07:56:42;;;;;;;4.00;2.80;;;4.50;99.30;;;;;;5031527;28;20413;-63
2021/04/07 07:59:08;;;;;;;4.37;2.67;;;4.60;98.90;;;;;;5033841;28;20198;-63
2021/04/07 08:01:42;;;;;;;3.80;2.87;;;4.50;99.30;;;;;;5033330;28;20214;-62
2021/04/07 08:04:07;;;;;;;5.03;2.03;;;4.40;99.10;;;;;;5033123;28;20409;-61
2021/04/07 08:06:33;;;;;;;2.73;2.53;;;4.00;98.60;;;;;;5033199;28;20433;-62
2021/04/07 08:08:59;;;;;;;6.13;2.63;;;3.80;99.80;;;;;;5032102;28;20175;-63
2021/04/07 08:11:26;;;;;;;4.03;2.33;;;3.90;99.90;;;;;;5033524;28;20460;-63
2021/04/07 08:13:53;;;;;;;3.30;2.20;;;3.70;99.50;;;;;;5033039;28;20178;-62
2021/04/07 08:16:21;;;;;;;4.53;2.43;;;3.60;99.90;;;;;;5031963;28;20443;-64
2021/04/07 08:18:49;;;;;;;4.83;3.10;;;3.70;99.80;;;;;;5033450;28;20783;-62
2021/04/07 08:21:19;;;;;;;3.13;2.00;;;3.90;99.70;;;;;;5033050;28;20412;-62
2021/04/07 08:23:48;;;;;;;3.73;2.57;;;3.90;99.90;;;;;;5033141;28;20396;-63
2021/04/07 08:26:15;;;;;;;2.60;2.40;;;4.00;99.90;;;;;;5033179;28;20810;-62
2021/04/07 08:28:41;;;;;;;5.93;2.53;;;4.00;99.90;;;;;;5033577;28;20500;-62
2021/04/07 08:31:15;;;;;;;4.33;2.40;;;4.00;99.90;;;;;;5033395;28;20982;-62
2021/04/07 08:33:49;;;;;;;3.63;2.50;;;4.20;99.90;;;;;;5033121;28;20402;-62
2021/04/07 08:36:17;;;;;;;9.67;2.50;;;4.20;99.60;;;;;;5032636;28;20445;-63
2021/04/07 08:38:42;;;;;;;3.80;2.40;;;4.30;99.90;;;;;;5032896;28;20942;-62
2021/04/07 08:41:13;;;;;;;4.30;2.60;;;4.30;99.90;;;;;;5032807;28;20405;-63
2021/04/07 08:43:39;;;;;;;4.70;2.87;;;4.50;99.90;;;;;;5032779;28;20535;-62
2021/04/07 08:46:12;;;;;;;3.17;2.37;;;4.50;99.90;;;;;;5033102;28;20418;-63
2021/04/07 08:48:38;;;;;;;3.97;2.97;;;4.20;99.90;;;;;;5032952;28;20911;-62
2021/04/07 08:51:15;;;;;;;4.13;2.60;;;4.20;99.90;;;;;;5032627;28;20485;-62
2021/04/07 08:53:43;;;;;;;4.80;2.47;;;4.20;99.90;;;;;;5033520;28;20535;-61
2021/04/07 08:56:14;;;;;;;3.13;2.80;;;4.30;99.90;;;;;;5032668;28;20429;-62
2021/04/07 08:58:53;;;;;;;4.50;2.80;;;4.60;99.90;;;;;;5035328;28;20472;-62
2021/04/07 09:01:39;;;;;;;4.80;4.40;;;5.00;99.90;;;;;;5033566;28;20398;-62
2021/04/07 09:04:14;;;;;;;4.80;3.20;;;5.30;99.40;;;;;;5031298;28;20402;-62
2021/04/07 09:06:59;;;;;;;8.17;3.10;;;5.40;99.10;;;;;;5032477;28;20523;-63
2021/04/07 09:09:25;;;;;;;5.50;3.30;;;5.00;98.70;;;;;;5032846;28;20393;-63
2021/04/07 09:11:53;;;;;;;3.30;2.60;;;4.60;99.50;;;;;;5032652;28;20402;-63
2021/04/07 09:14:20;;;;;;;4.03;3.00;;;4.30;99.90;;;;;;5032736;28;20402;-62
2021/04/07 09:16:46;;;;;;;4.93;3.40;;;4.30;99.90;;;;;;5035354;28;20441;-62
2021/04/07 09:19:21;;;;;;;3.13;2.83;;;4.50;99.90;;;;;;5036829;28;20445;-62
2021/04/07 09:22:06;;;;;;;9.67;2.93;;;4.80;99.90;;;;;;5035174;28;20424;-63
2021/04/07 09:24:50;;;;;;;5.93;3.10;;;4.90;99.90;;;;;;5039493;28;20404;-62
2021/04/07 09:27:21;;;;;;;3.53;3.23;;;4.80;99.90;;;;;;5056375;28;20667;-62
2021/04/07 09:29:46;;;;;;;4.63;3.53;;;5.10;99.90;;;;;;5056729;28;20487;-62
2021/04/07 09:32:19;;;;;;;4.20;3.00;;;5.00;99.90;;;;;;5056372;28;20415;-62
2021/04/07 09:34:47;;;;;;;5.57;3.57;;;5.40;99.90;;;;;;5056441;28;20179;-62
2021/04/07 09:37:14;;;;;;;4.33;3.13;;;5.30;99.90;;;;;;5077945;22;20508;-63
2021/04/07 09:39:40;;;;;;;3.00;2.70;;;4.70;99.90;;;;;;5056434;28;20444;-63
2021/04/07 09:42:06;;;;;;;3.70;3.10;;;4.70;99.90;;;;;;5056331;28;20720;-64
2021/04/07 09:44:32;;;;;;;2.70;2.50;;;4.50;99.90;;;;;;5056279;28;20492;-63
2021/04/07 09:46:59;;;;;;;5.00;2.77;;;4.40;99.90;;;;;;5056555;28;20508;-63
2021/04/07 09:49:27;;;;;;;6.70;2.90;;;4.20;99.90;;;;;;5056212;28;20250;-63
2021/04/07 09:51:53;;;;;;;4.70;4.10;;;4.60;99.90;;;;;;5056415;28;20563;-64
2021/04/07 09:54:30;;;;;;;4.90;3.10;;;4.90;99.90;;;;;;5056361;28;20924;-64
2021/04/07 09:57:03;;;;;;;2.70;2.50;;;5.40;98.90;;;;;;5038795;28;20443;-63
2021/04/07 09:59:42;;;;;;;4.40;2.60;;;5.60;98.30;;;;;;5056203;28;20444;-63
2021/04/07 10:02:24;;;;;;;6.30;3.60;;;5.80;97.00;;;;;;5056405;28;20384;-63
2021/04/07 10:04:51;;;;;;;3.07;2.70;;;6.00;96.40;;;;;;5056640;28;20396;-63
2021/04/07 10:07:25;;;;;;;4.27;2.50;;;6.30;96.50;;;;;;5055592;28;20848;-60
2021/04/07 10:09:52;;;;;;;3.37;2.40;;;6.50;95.50;;;;;;5055965;28;20393;-63
2021/04/07 10:12:23;;;;;;;5.57;2.33;;;6.30;95.10;;;;;;5056030;28;20412;-64
2021/04/07 10:14:54;;;;;;;3.10;2.83;;;5.90;95.50;;;;;;5056444;28;20436;-64
2021/04/07 10:17:31;;;;;;;6.13;3.03;;;5.90;96.40;;;;;;5055855;28;20929;-64
2021/04/07 10:20:05;;;;;;;4.73;2.67;;;5.80;96.10;;;;;;5055932;28;20448;-64
2021/04/07 10:22:32;;;;;;;3.50;2.60;;;5.90;96.10;;;;;;5055746;28;20480;-64
2021/04/07 10:25:04;;;;;;;5.20;2.67;;;5.70;96.00;;;;;;5055677;28;20466;-64
2021/04/07 10:27:30;;;;;;;7.13;2.90;;;5.50;97.00;;;;;;5055110;28;20475;-64
2021/04/07 10:30:06;;;;;;;4.63;3.30;;;5.60;97.30;;;;;;5057227;28;20401;-64
2021/04/07 10:32:42;;;;;;;3.80;3.00;;;5.60;98.40;;;;;;5056870;28;20173;-63
2021/04/07 10:35:09;;;;;;;5.33;4.10;;;5.40;98.70;;;;;;5059711;28;20432;-64
2021/04/07 10:37:36;;;;;;;3.80;2.73;;;5.30;98.70;;;;;;5068944;28;20456;-63
2021/04/07 10:40:03;;;;;;;4.53;3.10;;;5.60;99.50;;;;;;5062473;28;20453;-64
2021/04/07 10:42:31;;;;;;;6.83;2.60;;;5.70;98.90;;;;;;5058737;28;20833;-64
2021/04/07 10:44:58;;;;;;;5.90;2.87;;;5.70;97.40;;;;;;5067052;28;20429;-64
2021/04/07 10:47:24;;;;;;;2.60;2.17;;;5.70;98.30;;;;;;5073913;28;20425;-64
2021/04/07 10:49:54;;;;;;;3.67;2.77;;;6.00;97.70;;;;;;5076154;28;20534;-64
2021/04/07 10:52:51;;;;;;;4.60;2.40;;;5.60;96.90;;;;;;5076099;28;20450;-64
2021/04/07 10:55:22;;;;;;;3.73;2.40;;;5.90;96.80;;;;;;5048392;28;20460;-64
2021/04/07 10:57:48;;;;;;;4.40;2.10;;;6.20;96.60;;;;;;5055640;28;20432;-64
2021/04/07 11:00:38;;;;;;;4.37;2.10;;;6.50;95.70;;;;;;5055565;28;20484;-64
2021/04/07 11:03:06;;;;;;;2.20;2.00;;;6.70;95.30;;;;;;5032178;28;20929;-63
2021/04/07 11:05:44;;;;;;;4.53;2.33;;;7.60;94.40;;;;;;5054681;28;20418;-64
2021/04/07 11:08:14;;;;;;;3.03;1.50;;;8.20;93.00;;;;;;5054515;28;20405;-63
2021/04/07 11:10:41;;;;;;;2.60;1.93;;;7.90;90.80;;;;;;5054978;28;20472;-63
2021/04/07 11:13:08;;;;;;;3.23;2.17;;;7.80;91.20;;;;;;5036664;28;20409;-63
2021/04/07 11:15:34;;;;;;;4.63;2.23;;;7.50;90.30;;;;;;5054458;28;20455;-63
2021/04/07 11:18:00;;;;;;;3.47;2.17;;;7.20;90.30;;;;;;5055058;28;20402;-63
2021/04/07 11:20:27;;;;;;;9.67;2.80;;;7.70;90.70;;;;;;5054568;28;20409;-63
2021/04/07 11:22:53;;;;;;;4.07;2.17;;;8.10;90.20;;;;;;5054538;28;20162;-63
2021/04/07 11:25:22;;;;;;;7.80;2.37;;;8.10;88.80;;;;;;5055119;28;20463;-63
2021/04/07 11:27:51;;;;;;;5.00;2.80;;;7.80;89.90;;;;;;5054343;28;20482;-63
2021/04/07 11:30:17;;;;;;;2.43;2.07;;;7.60;90.30;;;;;;5054822;28;20755;-61
2021/04/07 11:32:47;;;;;;;3.37;1.80;;;7.60;89.90;;;;;;5054344;28;20424;-63
2021/04/07 11:37:51;;;;;;;3.53;2.17;;;7.60;90.20;;;;;;5053832;28;20454;-63
2021/04/07 11:40:37;;;;;;;3.30;2.20;;;7.90;89.30;;;;;;5053492;28;20523;-63
2021/04/07 11:45:31;;;;;;;4.80;2.00;;;9.20;82.30;;;;;;5054499;28;20407;-64
2021/04/07 11:47:57;;;;;;;3.83;2.10;;;9.50;79.80;;;;;;5054369;28;20826;-63
2021/04/07 11:50:23;;;;;;;4.47;2.28;;;8.80;77.90;;;;;;5053773;28;20432;-63
2021/04/07 11:52:48;;;;;;;5.67;2.20;;;8.50;78.90;;;;;;5053728;28;20180;-64
2021/04/07 11:55:14;;;;;;;3.07;1.80;;;8.60;79.20;;;;;;5053796;28;20167;-64
2021/04/07 11:57:40;;;;;;;3.40;2.30;;;8.30;77.80;;;;;;5053802;28;20194;-62
2021/04/07 12:00:07;;;;;;;4.03;1.80;;;8.00;78.80;;;;;;5053746;28;20194;-64
2021/04/07 12:02:34;;;;;;;3.50;2.17;;;7.50;79.10;;;;;;5054192;28;20158;-63
2021/04/07 12:05:01;;;;;;;3.47;2.00;;;7.30;81.00;;;;;;5054176;28;20458;-63
2021/04/07 12:07:27;;;;;;;5.43;2.73;;;7.20;80.50;;;;;;5053802;28;20491;-63
2021/04/07 12:09:52;;;;;;;3.60;2.40;;;6.90;81.70;;;;;;5053859;28;20888;-64
2021/04/07 12:12:18;;;;;;;3.47;2.40;;;6.70;82.30;;;;;;5053783;28;20174;-64
2021/04/07 12:14:44;;;;;;;2.83;2.17;;;6.60;82.10;;;;;;5053665;28;20655;-64
2021/04/07 12:17:09;;;;;;;3.87;2.23;;;6.60;83.30;;;;;;5053527;28;20670;-64
2021/04/07 12:19:35;;;;;;;5.40;2.40;;;6.40;84.90;;;;;;5053819;28;20190;-64
2021/04/07 12:22:01;;;;;;;7.50;2.87;;;6.40;85.40;;;;;;5053234;28;20237;-64
2021/04/07 12:24:28;;;;;;;2.70;2.03;;;6.40;85.50;;;;;;5054027;28;20166;-64
2021/04/07 12:26:54;;;;;;;4.90;2.50;;;6.60;87.50;;;;;;5052457;28;20428;-64
2021/04/07 12:29:20;;;;;;;2.37;1.90;;;7.10;85.20;;;;;;5053911;28;20765;-64
2021/04/07 12:31:45;;;;;;;3.20;2.27;;;7.60;83.10;;;;;;5053431;28;20401;-64
2021/04/07 12:34:12;;;;;;;3.70;2.33;;;7.50;83.10;;;;;;5053736;28;20175;-64
2021/04/07 12:36:37;;;;;;;3.50;2.30;;;6.90;86.30;;;;;;5053417;28;20279;-64
2021/04/07 12:39:04;;;;;;;2.30;2.03;;;7.00;87.20;;;;;;5053639;28;20445;-63
2021/04/07 12:44:08;;;;;;;1.87;1.73;;;7.00;86.70;;;;;;5053712;28;20382;-63
2021/04/07 12:46:34;;;;;;;3.90;1.87;;;7.20;87.40;;;;;;5053081;28;20421;-64
2021/04/07 12:48:59;;;;;;;5.73;1.70;;;7.30;85.40;;;;;;5053214;28;20170;-64
2021/04/07 12:51:25;;;;;;;2.57;1.63;;;7.30;85.70;;;;;;5053207;28;20547;-64
2021/04/07 12:53:51;;;;;;;3.73;1.80;;;7.20;83.70;;;;;;5055727;28;20174;-64
2021/04/07 12:56:18;;;;;;;4.67;2.03;;;7.30;85.50;;;;;;5053319;28;20194;-63
2021/04/07 12:58:45;;;;;;;3.87;2.40;;;7.20;85.60;;;;;;5053220;28;20449;-63
2021/04/07 13:01:11;;;;;;;3.23;1.87;;;7.00;87.30;;;;;;5053368;28;20449;-64
2021/04/07 13:03:37;;;;;;;2.57;2.20;;;6.50;86.60;;;;;;5035860;28;20434;-63
2021/04/07 13:06:03;;;;;;;5.55;2.30;;;6.30;88.00;;;;;;5052382;28;20427;-63
2021/04/07 13:08:28;;;;;;;5.27;2.03;;;6.50;88.50;;;;;;5035618;28;20178;-63